sensor_id;sensor_type;location;lat;lon;timestamp;P1;durP1;ratioP1;P2;durP2;ratioP2
37895;SDS011;23733;53.254;10.430;2023-01-29T00:00:40;22.80;;;13.37;;
37895;SDS011;23733;53.254;10.430;2023-01-29T00:03:08;22.00;;;13.57;;
37895;SDS011;23733;53.254;10.430;2023-01-29T00:05:35;21.20;;;13.27;;
37895;SDS011;23733;53.254;10.430;2023-01-29T00:08:01;26.83;;;13.77;;
37895;SDS011;23733;53.254;10.430;2023-01-29T00:10:27;21.27;;;12.63;;
37895;SDS011;23733;53.254;10.430;2023-01-29T00:12:53;22.83;;;12.73;;
37895;SDS011;23733;53.254;10.430;2023-01-29T00:15:20;22.77;;;12.83;;
37895;SDS011;23733;53.254;10.430;2023-01-29T00:17:46;23.17;;;12.60;;
37895;SDS011;23733;53.254;10.430;2023-01-29T00:20:12;23.43;;;13.30;;
37895;SDS011;23733;53.254;10.430;2023-01-29T00:22:39;20.83;;;11.93;;
37895;SDS011;23733;53.254;10.430;2023-01-29T00:25:06;27.57;;;14.43;;
37895;SDS011;23733;53.254;10.430;2023-01-29T00:27:32;20.33;;;12.67;;
37895;SDS011;23733;53.254;10.430;2023-01-29T00:29:58;20.17;;;12.87;;
37895;SDS011;23733;53.254;10.430;2023-01-29T00:32:40;25.10;;;14.00;;
37895;SDS011;23733;53.254;10.430;2023-01-29T00:35:07;23.23;;;13.87;;
37895;SDS011;23733;53.254;10.430;2023-01-29T00:37:34;21.90;;;13.37;;
37895;SDS011;23733;53.254;10.430;2023-01-29T00:40:00;26.50;;;14.27;;
37895;SDS011;23733;53.254;10.430;2023-01-29T00:42:26;23.70;;;13.93;;
37895;SDS011;23733;53.254;10.430;2023-01-29T00:45:11;27.77;;;14.90;;
37895;SDS011;23733;53.254;10.430;2023-01-29T00:47:37;24.73;;;13.63;;
37895;SDS011;23733;53.254;10.430;2023-01-29T00:50:08;28.40;;;14.07;;
37895;SDS011;23733;53.254;10.430;2023-01-29T00:52:35;31.40;;;15.30;;
37895;SDS011;23733;53.254;10.430;2023-01-29T00:55:02;27.97;;;14.80;;
37895;SDS011;23733;53.254;10.430;2023-01-29T00:57:29;24.30;;;14.13;;
37895;SDS011;23733;53.254;10.430;2023-01-29T00:59:55;25.07;;;13.13;;
37895;SDS011;23733;53.254;10.430;2023-01-29T01:02:22;25.80;;;14.10;;
37895;SDS011;23733;53.254;10.430;2023-01-29T01:05:08;25.20;;;13.70;;
37895;SDS011;23733;53.254;10.430;2023-01-29T01:07:38;23.70;;;13.97;;
37895;SDS011;23733;53.254;10.430;2023-01-29T01:10:05;24.40;;;14.67;;
37895;SDS011;23733;53.254;10.430;2023-01-29T01:12:48;29.47;;;14.60;;
37895;SDS011;23733;53.254;10.430;2023-01-29T01:15:15;26.20;;;13.70;;
37895;SDS011;23733;53.254;10.430;2023-01-29T01:17:41;22.87;;;13.17;;
37895;SDS011;23733;53.254;10.430;2023-01-29T01:20:08;22.93;;;13.47;;
37895;SDS011;23733;53.254;10.430;2023-01-29T01:22:34;26.00;;;14.13;;
37895;SDS011;23733;53.254;10.430;2023-01-29T01:25:01;24.47;;;14.83;;
37895;SDS011;23733;53.254;10.430;2023-01-29T01:27:27;25.03;;;14.33;;
37895;SDS011;23733;53.254;10.430;2023-01-29T01:29:53;23.83;;;14.00;;
37895;SDS011;23733;53.254;10.430;2023-01-29T01:32:20;25.90;;;14.70;;
37895;SDS011;23733;53.254;10.430;2023-01-29T01:34:46;25.53;;;14.60;;
37895;SDS011;23733;53.254;10.430;2023-01-29T01:37:12;24.03;;;14.37;;
37895;SDS011;23733;53.254;10.430;2023-01-29T01:39:38;22.80;;;13.27;;
37895;SDS011;23733;53.254;10.430;2023-01-29T01:42:08;22.07;;;13.17;;
37895;SDS011;23733;53.254;10.430;2023-01-29T01:44:50;25.33;;;14.30;;
37895;SDS011;23733;53.254;10.430;2023-01-29T01:47:18;24.13;;;13.33;;
37895;SDS011;23733;53.254;10.430;2023-01-29T01:49:45;23.87;;;13.63;;
37895;SDS011;23733;53.254;10.430;2023-01-29T01:52:12;23.13;;;14.17;;
37895;SDS011;23733;53.254;10.430;2023-01-29T01:54:40;25.57;;;14.07;;
37895;SDS011;23733;53.254;10.430;2023-01-29T01:57:12;24.70;;;14.07;;
37895;SDS011;23733;53.254;10.430;2023-01-29T01:59:45;23.07;;;12.93;;
37895;SDS011;23733;53.254;10.430;2023-01-29T02:02:14;26.13;;;13.97;;
37895;SDS011;23733;53.254;10.430;2023-01-29T02:04:59;24.73;;;12.97;;
37895;SDS011;23733;53.254;10.430;2023-01-29T02:07:45;24.23;;;13.90;;
37895;SDS011;23733;53.254;10.430;2023-01-29T02:10:41;23.63;;;13.53;;
37895;SDS011;23733;53.254;10.430;2023-01-29T02:13:07;25.53;;;14.00;;
37895;SDS011;23733;53.254;10.430;2023-01-29T02:15:34;25.30;;;14.00;;
37895;SDS011;23733;53.254;10.430;2023-01-29T02:18:00;24.03;;;12.60;;
37895;SDS011;23733;53.254;10.430;2023-01-29T02:20:28;21.13;;;12.90;;
37895;SDS011;23733;53.254;10.430;2023-01-29T02:23:14;23.03;;;13.67;;
37895;SDS011;23733;53.254;10.430;2023-01-29T02:33:27;25.37;;;14.57;;
37895;SDS011;23733;53.254;10.430;2023-01-29T02:35:56;25.97;;;13.37;;
37895;SDS011;23733;53.254;10.430;2023-01-29T02:38:39;23.17;;;13.57;;
37895;SDS011;23733;53.254;10.430;2023-01-29T02:41:12;22.60;;;13.17;;
37895;SDS011;23733;53.254;10.430;2023-01-29T02:43:47;26.87;;;15.00;;
37895;SDS011;23733;53.254;10.430;2023-01-29T02:46:18;25.13;;;14.07;;
37895;SDS011;23733;53.254;10.430;2023-01-29T02:48:48;21.10;;;13.17;;
37895;SDS011;23733;53.254;10.430;2023-01-29T02:51:17;26.50;;;13.97;;
37895;SDS011;23733;53.254;10.430;2023-01-29T02:53:50;21.57;;;12.77;;
37895;SDS011;23733;53.254;10.430;2023-01-29T02:59:12;24.77;;;14.73;;
37895;SDS011;23733;53.254;10.430;2023-01-29T03:01:41;22.87;;;13.83;;
37895;SDS011;23733;53.254;10.430;2023-01-29T03:04:11;25.97;;;14.50;;
37895;SDS011;23733;53.254;10.430;2023-01-29T03:06:44;25.00;;;14.70;;
37895;SDS011;23733;53.254;10.430;2023-01-29T03:09:13;23.70;;;14.27;;
37895;SDS011;23733;53.254;10.430;2023-01-29T03:11:42;26.67;;;14.30;;
37895;SDS011;23733;53.254;10.430;2023-01-29T03:14:12;23.63;;;14.43;;
37895;SDS011;23733;53.254;10.430;2023-01-29T03:16:45;24.83;;;13.50;;
37895;SDS011;23733;53.254;10.430;2023-01-29T03:19:15;25.43;;;14.67;;
37895;SDS011;23733;53.254;10.430;2023-01-29T03:21:44;28.83;;;14.93;;
37895;SDS011;23733;53.254;10.430;2023-01-29T03:24:40;22.33;;;13.43;;
37895;SDS011;23733;53.254;10.430;2023-01-29T03:27:27;28.13;;;14.80;;
37895;SDS011;23733;53.254;10.430;2023-01-29T03:30:14;28.30;;;15.30;;
37895;SDS011;23733;53.254;10.430;2023-01-29T03:33:01;27.83;;;15.80;;
37895;SDS011;23733;53.254;10.430;2023-01-29T03:35:29;27.70;;;13.97;;
37895;SDS011;23733;53.254;10.430;2023-01-29T03:38:04;29.23;;;15.20;;
37895;SDS011;23733;53.254;10.430;2023-01-29T03:40:34;31.77;;;16.50;;
37895;SDS011;23733;53.254;10.430;2023-01-29T03:43:09;25.47;;;14.70;;
37895;SDS011;23733;53.254;10.430;2023-01-29T03:45:48;30.70;;;15.70;;
37895;SDS011;23733;53.254;10.430;2023-01-29T03:48:22;27.13;;;15.57;;
37895;SDS011;23733;53.254;10.430;2023-01-29T03:50:56;26.37;;;14.80;;
37895;SDS011;23733;53.254;10.430;2023-01-29T03:53:30;25.60;;;14.50;;
37895;SDS011;23733;53.254;10.430;2023-01-29T03:56:02;24.60;;;14.43;;
37895;SDS011;23733;53.254;10.430;2023-01-29T03:58:34;28.87;;;15.07;;
37895;SDS011;23733;53.254;10.430;2023-01-29T04:01:02;24.90;;;14.90;;
37895;SDS011;23733;53.254;10.430;2023-01-29T04:05:59;29.67;;;16.50;;
37895;SDS011;23733;53.254;10.430;2023-01-29T04:08:35;28.43;;;15.17;;
37895;SDS011;23733;53.254;10.430;2023-01-29T04:11:06;30.93;;;16.23;;
37895;SDS011;23733;53.254;10.430;2023-01-29T04:13:33;30.87;;;16.77;;
37895;SDS011;23733;53.254;10.430;2023-01-29T04:16:00;28.10;;;15.70;;
37895;SDS011;23733;53.254;10.430;2023-01-29T04:18:29;29.27;;;16.17;;
37895;SDS011;23733;53.254;10.430;2023-01-29T04:20:56;28.13;;;15.27;;
37895;SDS011;23733;53.254;10.430;2023-01-29T04:23:24;25.73;;;14.10;;
37895;SDS011;23733;53.254;10.430;2023-01-29T04:28:42;29.80;;;16.10;;
37895;SDS011;23733;53.254;10.430;2023-01-29T04:31:09;28.27;;;15.03;;
37895;SDS011;23733;53.254;10.430;2023-01-29T04:33:43;28.53;;;15.53;;
37895;SDS011;23733;53.254;10.430;2023-01-29T04:36:27;28.83;;;15.07;;
37895;SDS011;23733;53.254;10.430;2023-01-29T04:38:58;26.73;;;15.20;;
37895;SDS011;23733;53.254;10.430;2023-01-29T04:44:09;29.93;;;15.87;;
37895;SDS011;23733;53.254;10.430;2023-01-29T04:46:42;27.47;;;16.20;;
37895;SDS011;23733;53.254;10.430;2023-01-29T04:49:21;30.70;;;15.97;;
37895;SDS011;23733;53.254;10.430;2023-01-29T04:51:52;28.37;;;15.90;;
37895;SDS011;23733;53.254;10.430;2023-01-29T04:59:29;31.47;;;18.10;;
37895;SDS011;23733;53.254;10.430;2023-01-29T05:01:58;31.40;;;16.10;;
37895;SDS011;23733;53.254;10.430;2023-01-29T05:04:26;33.93;;;17.73;;
37895;SDS011;23733;53.254;10.430;2023-01-29T05:06:54;30.23;;;15.97;;
37895;SDS011;23733;53.254;10.430;2023-01-29T05:09:21;30.37;;;16.70;;
37895;SDS011;23733;53.254;10.430;2023-01-29T05:11:48;30.87;;;16.00;;
37895;SDS011;23733;53.254;10.430;2023-01-29T05:14:15;32.53;;;17.60;;
37895;SDS011;23733;53.254;10.430;2023-01-29T05:16:44;33.03;;;16.63;;
37895;SDS011;23733;53.254;10.430;2023-01-29T05:19:12;28.60;;;16.57;;
37895;SDS011;23733;53.254;10.430;2023-01-29T05:21:40;29.87;;;16.43;;
37895;SDS011;23733;53.254;10.430;2023-01-29T05:24:20;31.33;;;16.90;;
37895;SDS011;23733;53.254;10.430;2023-01-29T05:26:48;29.17;;;16.23;;
37895;SDS011;23733;53.254;10.430;2023-01-29T05:29:33;32.63;;;16.37;;
37895;SDS011;23733;53.254;10.430;2023-01-29T05:31:59;33.47;;;16.67;;
37895;SDS011;23733;53.254;10.430;2023-01-29T05:34:26;36.50;;;17.70;;
37895;SDS011;23733;53.254;10.430;2023-01-29T05:36:52;28.73;;;15.73;;
37895;SDS011;23733;53.254;10.430;2023-01-29T05:39:19;30.23;;;16.07;;
37895;SDS011;23733;53.254;10.430;2023-01-29T05:41:45;24.97;;;13.87;;
37895;SDS011;23733;53.254;10.430;2023-01-29T05:44:11;23.83;;;14.73;;
37895;SDS011;23733;53.254;10.430;2023-01-29T05:46:37;24.80;;;14.50;;
37895;SDS011;23733;53.254;10.430;2023-01-29T05:49:04;23.97;;;14.40;;
37895;SDS011;23733;53.254;10.430;2023-01-29T05:51:30;28.43;;;15.53;;
37895;SDS011;23733;53.254;10.430;2023-01-29T05:53:57;24.90;;;13.83;;
37895;SDS011;23733;53.254;10.430;2023-01-29T05:56:23;23.00;;;13.30;;
37895;SDS011;23733;53.254;10.430;2023-01-29T05:58:49;27.30;;;15.57;;
37895;SDS011;23733;53.254;10.430;2023-01-29T06:01:17;24.33;;;14.87;;
37895;SDS011;23733;53.254;10.430;2023-01-29T06:03:44;21.50;;;13.13;;
37895;SDS011;23733;53.254;10.430;2023-01-29T06:06:10;30.60;;;15.00;;
37895;SDS011;23733;53.254;10.430;2023-01-29T06:08:37;29.00;;;14.77;;
37895;SDS011;23733;53.254;10.430;2023-01-29T06:11:05;23.93;;;14.57;;
37895;SDS011;23733;53.254;10.430;2023-01-29T06:13:32;21.77;;;13.37;;
37895;SDS011;23733;53.254;10.430;2023-01-29T06:15:58;24.37;;;14.30;;
37895;SDS011;23733;53.254;10.430;2023-01-29T06:18:24;23.87;;;13.17;;
37895;SDS011;23733;53.254;10.430;2023-01-29T06:20:51;21.20;;;13.63;;
37895;SDS011;23733;53.254;10.430;2023-01-29T06:23:17;23.00;;;14.23;;
37895;SDS011;23733;53.254;10.430;2023-01-29T06:25:43;21.80;;;13.40;;
37895;SDS011;23733;53.254;10.430;2023-01-29T06:28:09;24.40;;;14.07;;
37895;SDS011;23733;53.254;10.430;2023-01-29T06:30:36;23.50;;;14.23;;
37895;SDS011;23733;53.254;10.430;2023-01-29T06:33:02;27.33;;;14.97;;
37895;SDS011;23733;53.254;10.430;2023-01-29T06:35:28;24.77;;;13.40;;
37895;SDS011;23733;53.254;10.430;2023-01-29T06:37:55;20.47;;;13.37;;
37895;SDS011;23733;53.254;10.430;2023-01-29T06:40:21;24.00;;;14.37;;
37895;SDS011;23733;53.254;10.430;2023-01-29T06:42:48;24.57;;;14.60;;
37895;SDS011;23733;53.254;10.430;2023-01-29T06:45:15;29.57;;;14.80;;
37895;SDS011;23733;53.254;10.430;2023-01-29T06:47:41;26.73;;;15.10;;
37895;SDS011;23733;53.254;10.430;2023-01-29T06:50:07;22.03;;;13.80;;
37895;SDS011;23733;53.254;10.430;2023-01-29T06:52:34;22.07;;;13.90;;
37895;SDS011;23733;53.254;10.430;2023-01-29T06:55:00;25.63;;;14.20;;
37895;SDS011;23733;53.254;10.430;2023-01-29T06:57:27;23.00;;;14.30;;
37895;SDS011;23733;53.254;10.430;2023-01-29T06:59:54;24.07;;;14.80;;
37895;SDS011;23733;53.254;10.430;2023-01-29T07:02:20;24.20;;;14.13;;
37895;SDS011;23733;53.254;10.430;2023-01-29T07:04:47;37.90;;;14.20;;
37895;SDS011;23733;53.254;10.430;2023-01-29T07:07:13;25.07;;;14.60;;
37895;SDS011;23733;53.254;10.430;2023-01-29T07:09:39;24.77;;;13.80;;
37895;SDS011;23733;53.254;10.430;2023-01-29T07:12:06;24.17;;;14.20;;
37895;SDS011;23733;53.254;10.430;2023-01-29T07:14:32;25.50;;;15.23;;
37895;SDS011;23733;53.254;10.430;2023-01-29T07:16:59;25.90;;;15.10;;
37895;SDS011;23733;53.254;10.430;2023-01-29T07:19:25;24.57;;;14.03;;
37895;SDS011;23733;53.254;10.430;2023-01-29T07:21:51;24.63;;;15.00;;
37895;SDS011;23733;53.254;10.430;2023-01-29T07:24:18;23.77;;;14.53;;
37895;SDS011;23733;53.254;10.430;2023-01-29T07:26:44;21.63;;;13.70;;
37895;SDS011;23733;53.254;10.430;2023-01-29T07:29:10;23.47;;;13.77;;
37895;SDS011;23733;53.254;10.430;2023-01-29T07:31:36;22.70;;;13.87;;
37895;SDS011;23733;53.254;10.430;2023-01-29T07:34:03;23.47;;;13.47;;
37895;SDS011;23733;53.254;10.430;2023-01-29T07:36:29;23.33;;;14.27;;
37895;SDS011;23733;53.254;10.430;2023-01-29T07:38:56;26.97;;;14.63;;
37895;SDS011;23733;53.254;10.430;2023-01-29T07:41:22;23.90;;;14.27;;
37895;SDS011;23733;53.254;10.430;2023-01-29T07:43:48;22.77;;;13.23;;
37895;SDS011;23733;53.254;10.430;2023-01-29T07:46:14;27.20;;;14.53;;
37895;SDS011;23733;53.254;10.430;2023-01-29T07:48:41;23.37;;;14.33;;
37895;SDS011;23733;53.254;10.430;2023-01-29T07:51:07;25.60;;;14.53;;
37895;SDS011;23733;53.254;10.430;2023-01-29T07:53:33;24.97;;;14.53;;
37895;SDS011;23733;53.254;10.430;2023-01-29T07:56:01;26.93;;;15.30;;
37895;SDS011;23733;53.254;10.430;2023-01-29T07:58:27;25.33;;;16.07;;
37895;SDS011;23733;53.254;10.430;2023-01-29T08:00:54;27.30;;;15.97;;
37895;SDS011;23733;53.254;10.430;2023-01-29T08:03:20;27.40;;;15.67;;
37895;SDS011;23733;53.254;10.430;2023-01-29T08:05:46;27.40;;;16.17;;
37895;SDS011;23733;53.254;10.430;2023-01-29T08:08:13;25.57;;;15.27;;
37895;SDS011;23733;53.254;10.430;2023-01-29T08:10:40;23.90;;;14.97;;
37895;SDS011;23733;53.254;10.430;2023-01-29T08:13:06;25.47;;;14.83;;
37895;SDS011;23733;53.254;10.430;2023-01-29T08:15:33;26.77;;;15.70;;
37895;SDS011;23733;53.254;10.430;2023-01-29T08:18:00;27.07;;;15.60;;
37895;SDS011;23733;53.254;10.430;2023-01-29T08:20:27;26.27;;;15.23;;
37895;SDS011;23733;53.254;10.430;2023-01-29T08:22:57;29.10;;;16.17;;
37895;SDS011;23733;53.254;10.430;2023-01-29T08:25:24;29.47;;;16.00;;
37895;SDS011;23733;53.254;10.430;2023-01-29T08:27:50;25.40;;;15.47;;
37895;SDS011;23733;53.254;10.430;2023-01-29T08:30:17;26.30;;;15.97;;
37895;SDS011;23733;53.254;10.430;2023-01-29T08:32:43;28.17;;;16.37;;
37895;SDS011;23733;53.254;10.430;2023-01-29T08:35:09;27.57;;;16.17;;
37895;SDS011;23733;53.254;10.430;2023-01-29T08:37:35;28.40;;;17.13;;
37895;SDS011;23733;53.254;10.430;2023-01-29T08:40:02;26.20;;;14.20;;
37895;SDS011;23733;53.254;10.430;2023-01-29T08:42:28;29.50;;;16.70;;
37895;SDS011;23733;53.254;10.430;2023-01-29T08:44:54;28.50;;;16.47;;
37895;SDS011;23733;53.254;10.430;2023-01-29T08:47:21;25.60;;;15.20;;
37895;SDS011;23733;53.254;10.430;2023-01-29T08:49:47;28.57;;;14.63;;
37895;SDS011;23733;53.254;10.430;2023-01-29T08:52:13;29.83;;;16.67;;
37895;SDS011;23733;53.254;10.430;2023-01-29T08:54:39;28.33;;;15.90;;
37895;SDS011;23733;53.254;10.430;2023-01-29T08:57:06;29.17;;;16.40;;
37895;SDS011;23733;53.254;10.430;2023-01-29T08:59:32;30.80;;;18.13;;
37895;SDS011;23733;53.254;10.430;2023-01-29T09:01:58;33.77;;;18.43;;
37895;SDS011;23733;53.254;10.430;2023-01-29T09:04:25;36.80;;;18.20;;
37895;SDS011;23733;53.254;10.430;2023-01-29T09:06:51;33.07;;;19.03;;
37895;SDS011;23733;53.254;10.430;2023-01-29T09:09:17;33.17;;;18.93;;
37895;SDS011;23733;53.254;10.430;2023-01-29T09:11:43;39.63;;;20.37;;
37895;SDS011;23733;53.254;10.430;2023-01-29T09:14:10;38.70;;;20.83;;
37895;SDS011;23733;53.254;10.430;2023-01-29T09:16:38;36.57;;;20.37;;
37895;SDS011;23733;53.254;10.430;2023-01-29T09:19:05;38.87;;;21.87;;
37895;SDS011;23733;53.254;10.430;2023-01-29T09:21:32;42.17;;;22.40;;
37895;SDS011;23733;53.254;10.430;2023-01-29T09:23:58;41.03;;;20.97;;
37895;SDS011;23733;53.254;10.430;2023-01-29T09:26:25;42.80;;;21.23;;
37895;SDS011;23733;53.254;10.430;2023-01-29T09:28:51;47.30;;;22.90;;
37895;SDS011;23733;53.254;10.430;2023-01-29T09:31:17;40.20;;;22.23;;
37895;SDS011;23733;53.254;10.430;2023-01-29T09:33:44;40.47;;;21.23;;
37895;SDS011;23733;53.254;10.430;2023-01-29T09:36:10;45.27;;;22.83;;
37895;SDS011;23733;53.254;10.430;2023-01-29T09:38:36;43.13;;;21.30;;
37895;SDS011;23733;53.254;10.430;2023-01-29T09:41:27;45.40;;;24.07;;
37895;SDS011;23733;53.254;10.430;2023-01-29T09:46:39;45.03;;;24.43;;
37895;SDS011;23733;53.254;10.430;2023-01-29T09:49:09;44.83;;;23.37;;
37895;SDS011;23733;53.254;10.430;2023-01-29T09:51:42;43.27;;;23.17;;
37895;SDS011;23733;53.254;10.430;2023-01-29T09:54:21;45.57;;;24.27;;
37895;SDS011;23733;53.254;10.430;2023-01-29T09:56:48;51.80;;;22.87;;
37895;SDS011;23733;53.254;10.430;2023-01-29T09:59:15;49.43;;;23.40;;
37895;SDS011;23733;53.254;10.430;2023-01-29T10:07:12;42.30;;;22.43;;
37895;SDS011;23733;53.254;10.430;2023-01-29T10:09:46;43.07;;;22.27;;
37895;SDS011;23733;53.254;10.430;2023-01-29T10:12:30;47.37;;;24.13;;
37895;SDS011;23733;53.254;10.430;2023-01-29T10:22:25;46.77;;;23.53;;
37895;SDS011;23733;53.254;10.430;2023-01-29T10:24:56;42.50;;;22.70;;
37895;SDS011;23733;53.254;10.430;2023-01-29T10:27:24;44.57;;;24.17;;
37895;SDS011;23733;53.254;10.430;2023-01-29T10:29:52;45.70;;;23.13;;
37895;SDS011;23733;53.254;10.430;2023-01-29T10:32:20;43.90;;;22.67;;
37895;SDS011;23733;53.254;10.430;2023-01-29T10:34:52;42.07;;;22.77;;
37895;SDS011;23733;53.254;10.430;2023-01-29T10:37:21;45.50;;;23.93;;
37895;SDS011;23733;53.254;10.430;2023-01-29T10:39:48;41.13;;;22.70;;
37895;SDS011;23733;53.254;10.430;2023-01-29T10:42:20;41.63;;;22.10;;
37895;SDS011;23733;53.254;10.430;2023-01-29T10:50:03;42.03;;;22.40;;
37895;SDS011;23733;53.254;10.430;2023-01-29T11:00:19;40.87;;;21.40;;
37895;SDS011;23733;53.254;10.430;2023-01-29T11:02:47;38.90;;;21.17;;
37895;SDS011;23733;53.254;10.430;2023-01-29T11:05:32;35.70;;;19.63;;
37895;SDS011;23733;53.254;10.430;2023-01-29T11:08:01;39.00;;;21.50;;
37895;SDS011;23733;53.254;10.430;2023-01-29T11:10:28;35.63;;;19.83;;
37895;SDS011;23733;53.254;10.430;2023-01-29T11:12:57;37.03;;;20.43;;
37895;SDS011;23733;53.254;10.430;2023-01-29T11:15:28;34.80;;;21.00;;
37895;SDS011;23733;53.254;10.430;2023-01-29T11:17:59;34.17;;;19.97;;
37895;SDS011;23733;53.254;10.430;2023-01-29T11:20:27;35.17;;;20.40;;
37895;SDS011;23733;53.254;10.430;2023-01-29T11:22:54;34.60;;;19.90;;
37895;SDS011;23733;53.254;10.430;2023-01-29T11:25:21;31.27;;;18.10;;
37895;SDS011;23733;53.254;10.430;2023-01-29T11:27:53;33.67;;;19.07;;
37895;SDS011;23733;53.254;10.430;2023-01-29T11:30:22;33.30;;;19.43;;
37895;SDS011;23733;53.254;10.430;2023-01-29T11:32:49;30.70;;;18.60;;
37895;SDS011;23733;53.254;10.430;2023-01-29T11:35:19;33.83;;;19.60;;
37895;SDS011;23733;53.254;10.430;2023-01-29T11:37:45;31.10;;;18.10;;
37895;SDS011;23733;53.254;10.430;2023-01-29T11:42:47;29.60;;;18.03;;
37895;SDS011;23733;53.254;10.430;2023-01-29T11:47:49;28.97;;;17.30;;
37895;SDS011;23733;53.254;10.430;2023-01-29T11:50:22;27.03;;;17.17;;
37895;SDS011;23733;53.254;10.430;2023-01-29T11:52:49;30.73;;;16.80;;
37895;SDS011;23733;53.254;10.430;2023-01-29T11:55:20;32.10;;;17.70;;
37895;SDS011;23733;53.254;10.430;2023-01-29T11:57:51;27.50;;;16.57;;
37895;SDS011;23733;53.254;10.430;2023-01-29T12:00:23;26.80;;;16.10;;
37895;SDS011;23733;53.254;10.430;2023-01-29T12:02:53;27.93;;;16.23;;
37895;SDS011;23733;53.254;10.430;2023-01-29T12:05:22;28.37;;;16.17;;
37895;SDS011;23733;53.254;10.430;2023-01-29T12:07:50;25.30;;;15.80;;
37895;SDS011;23733;53.254;10.430;2023-01-29T12:15:40;26.57;;;16.03;;
37895;SDS011;23733;53.254;10.430;2023-01-29T12:18:15;26.43;;;16.83;;
37895;SDS011;23733;53.254;10.430;2023-01-29T12:20:47;30.10;;;16.17;;
37895;SDS011;23733;53.254;10.430;2023-01-29T12:26:01;26.67;;;15.23;;
37895;SDS011;23733;53.254;10.430;2023-01-29T12:28:35;28.77;;;16.13;;
37895;SDS011;23733;53.254;10.430;2023-01-29T12:33:47;26.20;;;16.27;;
37895;SDS011;23733;53.254;10.430;2023-01-29T12:36:18;26.13;;;16.07;;
37895;SDS011;23733;53.254;10.430;2023-01-29T12:38:45;29.77;;;16.73;;
37895;SDS011;23733;53.254;10.430;2023-01-29T12:41:19;24.40;;;15.50;;
37895;SDS011;23733;53.254;10.430;2023-01-29T12:43:53;25.30;;;15.50;;
37895;SDS011;23733;53.254;10.430;2023-01-29T12:46:25;29.87;;;16.20;;
37895;SDS011;23733;53.254;10.430;2023-01-29T12:48:52;27.03;;;16.20;;
37895;SDS011;23733;53.254;10.430;2023-01-29T12:51:24;27.07;;;16.77;;
37895;SDS011;23733;53.254;10.430;2023-01-29T12:54:02;29.57;;;16.47;;
37895;SDS011;23733;53.254;10.430;2023-01-29T12:56:31;27.63;;;16.07;;
37895;SDS011;23733;53.254;10.430;2023-01-29T12:58:59;22.93;;;15.10;;
37895;SDS011;23733;53.254;10.430;2023-01-29T13:01:37;27.53;;;16.40;;
37895;SDS011;23733;53.254;10.430;2023-01-29T13:04:08;26.50;;;15.97;;
37895;SDS011;23733;53.254;10.430;2023-01-29T13:06:46;27.60;;;16.33;;
37895;SDS011;23733;53.254;10.430;2023-01-29T13:09:16;25.03;;;15.03;;
37895;SDS011;23733;53.254;10.430;2023-01-29T13:17:08;28.13;;;16.73;;
37895;SDS011;23733;53.254;10.430;2023-01-29T13:19:39;27.07;;;16.93;;
37895;SDS011;23733;53.254;10.430;2023-01-29T13:22:13;29.20;;;16.43;;
37895;SDS011;23733;53.254;10.430;2023-01-29T13:24:40;26.93;;;16.33;;
37895;SDS011;23733;53.254;10.430;2023-01-29T13:27:13;25.73;;;15.80;;
37895;SDS011;23733;53.254;10.430;2023-01-29T13:29:42;27.50;;;16.67;;
37895;SDS011;23733;53.254;10.430;2023-01-29T13:32:09;25.23;;;16.40;;
37895;SDS011;23733;53.254;10.430;2023-01-29T13:34:36;26.30;;;15.87;;
37895;SDS011;23733;53.254;10.430;2023-01-29T13:37:08;27.00;;;16.53;;
37895;SDS011;23733;53.254;10.430;2023-01-29T13:39:38;26.57;;;16.50;;
37895;SDS011;23733;53.254;10.430;2023-01-29T13:42:18;29.70;;;16.43;;
37895;SDS011;23733;53.254;10.430;2023-01-29T13:44:47;27.13;;;15.97;;
37895;SDS011;23733;53.254;10.430;2023-01-29T13:47:24;27.63;;;16.57;;
37895;SDS011;23733;53.254;10.430;2023-01-29T13:50:38;29.33;;;15.80;;
37895;SDS011;23733;53.254;10.430;2023-01-29T13:52:54;28.67;;;16.53;;
37895;SDS011;23733;53.254;10.430;2023-01-29T13:55:23;27.37;;;16.17;;
37895;SDS011;23733;53.254;10.430;2023-01-29T13:57:56;25.93;;;15.70;;
37895;SDS011;23733;53.254;10.430;2023-01-29T14:05:37;28.30;;;15.33;;
37895;SDS011;23733;53.254;10.430;2023-01-29T14:10:40;24.13;;;15.23;;
37895;SDS011;23733;53.254;10.430;2023-01-29T14:18:24;33.60;;;16.67;;
37895;SDS011;23733;53.254;10.430;2023-01-29T14:20:52;26.03;;;15.40;;
37895;SDS011;23733;53.254;10.430;2023-01-29T14:25:51;25.13;;;15.83;;
37895;SDS011;23733;53.254;10.430;2023-01-29T14:28:38;27.50;;;16.13;;
37895;SDS011;23733;53.254;10.430;2023-01-29T14:31:04;26.27;;;15.60;;
37895;SDS011;23733;53.254;10.430;2023-01-29T14:33:35;28.33;;;15.70;;
37895;SDS011;23733;53.254;10.430;2023-01-29T14:36:03;26.93;;;16.43;;
37895;SDS011;23733;53.254;10.430;2023-01-29T14:38:31;27.47;;;16.33;;
37895;SDS011;23733;53.254;10.430;2023-01-29T14:41:06;28.00;;;16.33;;
37895;SDS011;23733;53.254;10.430;2023-01-29T14:43:34;25.87;;;15.73;;
37895;SDS011;23733;53.254;10.430;2023-01-29T14:48:46;25.93;;;16.00;;
37895;SDS011;23733;53.254;10.430;2023-01-29T14:51:18;28.07;;;17.23;;
37895;SDS011;23733;53.254;10.430;2023-01-29T14:56:32;31.60;;;18.07;;
37895;SDS011;23733;53.254;10.430;2023-01-29T15:01:29;29.63;;;16.27;;
37895;SDS011;23733;53.254;10.430;2023-01-29T15:06:38;29.37;;;17.37;;
37895;SDS011;23733;53.254;10.430;2023-01-29T15:11:54;28.20;;;17.17;;
37895;SDS011;23733;53.254;10.430;2023-01-29T15:14:28;29.57;;;17.87;;
37895;SDS011;23733;53.254;10.430;2023-01-29T15:17:01;33.27;;;18.97;;
37895;SDS011;23733;53.254;10.430;2023-01-29T15:19:37;33.77;;;18.20;;
37895;SDS011;23733;53.254;10.430;2023-01-29T15:22:14;30.83;;;17.40;;
37895;SDS011;23733;53.254;10.430;2023-01-29T15:24:42;31.13;;;17.73;;
37895;SDS011;23733;53.254;10.430;2023-01-29T15:27:10;30.27;;;18.33;;
37895;SDS011;23733;53.254;10.430;2023-01-29T15:29:37;32.10;;;18.60;;
37895;SDS011;23733;53.254;10.430;2023-01-29T15:32:04;31.27;;;19.33;;
37895;SDS011;23733;53.254;10.430;2023-01-29T15:34:31;33.00;;;19.13;;
37895;SDS011;23733;53.254;10.430;2023-01-29T15:36:57;30.90;;;19.17;;
37895;SDS011;23733;53.254;10.430;2023-01-29T15:39:24;36.40;;;19.63;;
37895;SDS011;23733;53.254;10.430;2023-01-29T15:42:03;33.53;;;20.00;;
37895;SDS011;23733;53.254;10.430;2023-01-29T15:44:29;31.97;;;18.90;;
37895;SDS011;23733;53.254;10.430;2023-01-29T15:46:57;28.50;;;18.00;;
37895;SDS011;23733;53.254;10.430;2023-01-29T15:51:56;33.00;;;18.40;;
37895;SDS011;23733;53.254;10.430;2023-01-29T15:54:23;31.93;;;18.83;;
37895;SDS011;23733;53.254;10.430;2023-01-29T15:56:51;33.27;;;18.73;;
37895;SDS011;23733;53.254;10.430;2023-01-29T15:59:18;32.60;;;19.33;;
37895;SDS011;23733;53.254;10.430;2023-01-29T16:01:47;31.80;;;18.13;;
37895;SDS011;23733;53.254;10.430;2023-01-29T16:04:20;34.57;;;19.83;;
37895;SDS011;23733;53.254;10.430;2023-01-29T16:06:48;36.00;;;19.90;;